sensor_id;sensor_type;location;lat;lon;timestamp;P1;durP1;ratioP1;P2;durP2;ratioP2
47069;SDS011;32822;48.140;7.702;2024-01-10T00:00:25;33.77;;;19.90;;
47069;SDS011;32822;48.140;7.702;2024-01-10T00:02:52;37.93;;;21.50;;
47069;SDS011;32822;48.140;7.702;2024-01-10T00:05:19;33.37;;;21.17;;
47069;SDS011;32822;48.140;7.702;2024-01-10T00:07:46;33.63;;;20.13;;
47069;SDS011;32822;48.140;7.702;2024-01-10T00:10:12;32.63;;;19.00;;
47069;SDS011;32822;48.140;7.702;2024-01-10T00:12:39;38.20;;;21.77;;
47069;SDS011;32822;48.140;7.702;2024-01-10T00:15:10;29.90;;;20.30;;
47069;SDS011;32822;48.140;7.702;2024-01-10T00:17:37;27.97;;;19.93;;
47069;SDS011;32822;48.140;7.702;2024-01-10T00:20:05;29.73;;;20.03;;
47069;SDS011;32822;48.140;7.702;2024-01-10T00:22:33;30.70;;;21.07;;
47069;SDS011;32822;48.140;7.702;2024-01-10T00:24:59;33.63;;;21.03;;
47069;SDS011;32822;48.140;7.702;2024-01-10T00:27:26;30.83;;;21.13;;
47069;SDS011;32822;48.140;7.702;2024-01-10T00:29:53;38.87;;;22.07;;
47069;SDS011;32822;48.140;7.702;2024-01-10T00:32:23;32.63;;;21.07;;
47069;SDS011;32822;48.140;7.702;2024-01-10T00:34:49;32.20;;;20.47;;
47069;SDS011;32822;48.140;7.702;2024-01-10T00:37:16;32.00;;;20.63;;
47069;SDS011;32822;48.140;7.702;2024-01-10T00:39:43;32.13;;;20.50;;
47069;SDS011;32822;48.140;7.702;2024-01-10T00:42:09;35.03;;;21.50;;
47069;SDS011;32822;48.140;7.702;2024-01-10T00:44:36;30.53;;;19.27;;
47069;SDS011;32822;48.140;7.702;2024-01-10T00:47:04;34.07;;;20.93;;
47069;SDS011;32822;48.140;7.702;2024-01-10T00:49:32;40.93;;;23.67;;
47069;SDS011;32822;48.140;7.702;2024-01-10T00:51:59;33.50;;;20.63;;
47069;SDS011;32822;48.140;7.702;2024-01-10T00:56:53;30.27;;;19.53;;
47069;SDS011;32822;48.140;7.702;2024-01-10T00:59:20;33.27;;;21.23;;
47069;SDS011;32822;48.140;7.702;2024-01-10T01:01:46;33.33;;;20.57;;
47069;SDS011;32822;48.140;7.702;2024-01-10T01:04:13;36.70;;;20.77;;
47069;SDS011;32822;48.140;7.702;2024-01-10T01:06:41;32.10;;;19.27;;
47069;SDS011;32822;48.140;7.702;2024-01-10T01:09:08;30.20;;;19.87;;
47069;SDS011;32822;48.140;7.702;2024-01-10T01:11:34;29.53;;;19.07;;
47069;SDS011;32822;48.140;7.702;2024-01-10T01:14:01;33.20;;;20.47;;
47069;SDS011;32822;48.140;7.702;2024-01-10T01:16:27;35.47;;;20.73;;
47069;SDS011;32822;48.140;7.702;2024-01-10T01:18:53;31.83;;;20.30;;
47069;SDS011;32822;48.140;7.702;2024-01-10T01:21:20;32.43;;;19.87;;
47069;SDS011;32822;48.140;7.702;2024-01-10T01:23:48;32.37;;;19.63;;
47069;SDS011;32822;48.140;7.702;2024-01-10T01:26:15;28.90;;;19.77;;
47069;SDS011;32822;48.140;7.702;2024-01-10T01:28:42;28.90;;;19.23;;
47069;SDS011;32822;48.140;7.702;2024-01-10T01:31:08;36.13;;;20.93;;
47069;SDS011;32822;48.140;7.702;2024-01-10T01:33:35;31.03;;;19.63;;
47069;SDS011;32822;48.140;7.702;2024-01-10T01:36:03;33.50;;;21.10;;
47069;SDS011;32822;48.140;7.702;2024-01-10T01:38:29;34.37;;;20.80;;
47069;SDS011;32822;48.140;7.702;2024-01-10T01:40:57;31.90;;;20.37;;
47069;SDS011;32822;48.140;7.702;2024-01-10T01:43:24;29.27;;;19.70;;
47069;SDS011;32822;48.140;7.702;2024-01-10T01:45:53;31.37;;;20.53;;
47069;SDS011;32822;48.140;7.702;2024-01-10T01:48:20;31.57;;;19.67;;
47069;SDS011;32822;48.140;7.702;2024-01-10T01:50:49;30.93;;;20.40;;
47069;SDS011;32822;48.140;7.702;2024-01-10T01:53:18;33.53;;;20.63;;
47069;SDS011;32822;48.140;7.702;2024-01-10T01:55:45;32.43;;;20.37;;
47069;SDS011;32822;48.140;7.702;2024-01-10T01:58:13;32.57;;;20.13;;
47069;SDS011;32822;48.140;7.702;2024-01-10T02:00:40;32.87;;;19.37;;
47069;SDS011;32822;48.140;7.702;2024-01-10T02:03:08;29.87;;;18.23;;
47069;SDS011;32822;48.140;7.702;2024-01-10T02:05:36;31.57;;;18.43;;
47069;SDS011;32822;48.140;7.702;2024-01-10T02:08:03;29.70;;;19.63;;
47069;SDS011;32822;48.140;7.702;2024-01-10T02:10:30;30.20;;;18.90;;
47069;SDS011;32822;48.140;7.702;2024-01-10T02:12:57;29.17;;;18.87;;
47069;SDS011;32822;48.140;7.702;2024-01-10T02:15:25;30.20;;;19.67;;
47069;SDS011;32822;48.140;7.702;2024-01-10T02:17:52;28.57;;;18.63;;
47069;SDS011;32822;48.140;7.702;2024-01-10T02:20:18;33.30;;;19.80;;
47069;SDS011;32822;48.140;7.702;2024-01-10T02:22:46;31.07;;;19.40;;
47069;SDS011;32822;48.140;7.702;2024-01-10T02:25:15;34.43;;;20.53;;
47069;SDS011;32822;48.140;7.702;2024-01-10T02:27:42;32.83;;;20.03;;
47069;SDS011;32822;48.140;7.702;2024-01-10T02:30:09;30.47;;;20.37;;
47069;SDS011;32822;48.140;7.702;2024-01-10T02:32:36;36.17;;;21.80;;
47069;SDS011;32822;48.140;7.702;2024-01-10T02:35:03;33.93;;;21.53;;
47069;SDS011;32822;48.140;7.702;2024-01-10T02:37:30;35.40;;;21.07;;
47069;SDS011;32822;48.140;7.702;2024-01-10T02:39:57;32.07;;;20.97;;
47069;SDS011;32822;48.140;7.702;2024-01-10T02:42:25;36.77;;;22.20;;
47069;SDS011;32822;48.140;7.702;2024-01-10T02:44:53;40.37;;;22.93;;
47069;SDS011;32822;48.140;7.702;2024-01-10T02:47:19;34.50;;;22.53;;
47069;SDS011;32822;48.140;7.702;2024-01-10T02:49:46;37.17;;;22.07;;
47069;SDS011;32822;48.140;7.702;2024-01-10T02:52:13;34.40;;;21.83;;
47069;SDS011;32822;48.140;7.702;2024-01-10T02:54:40;32.07;;;21.47;;
47069;SDS011;32822;48.140;7.702;2024-01-10T02:57:06;35.00;;;21.87;;
47069;SDS011;32822;48.140;7.702;2024-01-10T02:59:34;34.23;;;21.13;;
47069;SDS011;32822;48.140;7.702;2024-01-10T03:02:01;36.37;;;23.13;;
47069;SDS011;32822;48.140;7.702;2024-01-10T03:04:28;34.67;;;23.30;;
47069;SDS011;32822;48.140;7.702;2024-01-10T03:06:55;40.87;;;23.40;;
47069;SDS011;32822;48.140;7.702;2024-01-10T03:09:22;36.50;;;21.73;;
47069;SDS011;32822;48.140;7.702;2024-01-10T03:11:48;33.63;;;22.10;;
47069;SDS011;32822;48.140;7.702;2024-01-10T03:14:15;32.03;;;20.70;;
47069;SDS011;32822;48.140;7.702;2024-01-10T03:16:43;39.67;;;23.30;;
47069;SDS011;32822;48.140;7.702;2024-01-10T03:19:10;34.60;;;22.33;;
47069;SDS011;32822;48.140;7.702;2024-01-10T03:21:37;34.97;;;21.27;;
47069;SDS011;32822;48.140;7.702;2024-01-10T03:24:04;34.07;;;22.00;;
47069;SDS011;32822;48.140;7.702;2024-01-10T03:26:31;34.23;;;22.27;;
47069;SDS011;32822;48.140;7.702;2024-01-10T03:28:58;38.10;;;22.80;;
47069;SDS011;32822;48.140;7.702;2024-01-10T03:31:25;34.43;;;22.20;;
47069;SDS011;32822;48.140;7.702;2024-01-10T03:33:55;37.47;;;22.77;;
47069;SDS011;32822;48.140;7.702;2024-01-10T03:36:21;33.13;;;21.53;;
47069;SDS011;32822;48.140;7.702;2024-01-10T03:38:48;33.40;;;20.80;;
47069;SDS011;32822;48.140;7.702;2024-01-10T03:41:15;33.17;;;20.97;;
47069;SDS011;32822;48.140;7.702;2024-01-10T03:43:42;37.03;;;21.97;;
47069;SDS011;32822;48.140;7.702;2024-01-10T03:46:10;31.10;;;21.07;;
47069;SDS011;32822;48.140;7.702;2024-01-10T03:48:37;35.07;;;21.93;;
47069;SDS011;32822;48.140;7.702;2024-01-10T03:51:13;35.30;;;23.10;;
47069;SDS011;32822;48.140;7.702;2024-01-10T03:53:40;31.53;;;21.20;;
47069;SDS011;32822;48.140;7.702;2024-01-10T03:56:07;34.50;;;20.70;;
47069;SDS011;32822;48.140;7.702;2024-01-10T03:58:34;31.73;;;21.77;;
47069;SDS011;32822;48.140;7.702;2024-01-10T04:01:03;33.13;;;21.10;;
47069;SDS011;32822;48.140;7.702;2024-01-10T04:03:31;33.63;;;21.43;;
47069;SDS011;32822;48.140;7.702;2024-01-10T04:05:57;32.27;;;21.40;;
47069;SDS011;32822;48.140;7.702;2024-01-10T04:08:26;32.67;;;20.53;;
47069;SDS011;32822;48.140;7.702;2024-01-10T04:10:52;35.53;;;21.83;;
47069;SDS011;32822;48.140;7.702;2024-01-10T04:13:19;29.33;;;20.37;;
47069;SDS011;32822;48.140;7.702;2024-01-10T04:15:46;43.00;;;26.80;;
47069;SDS011;32822;48.140;7.702;2024-01-10T04:18:12;34.17;;;22.00;;
47069;SDS011;32822;48.140;7.702;2024-01-10T04:20:39;33.93;;;22.20;;
47069;SDS011;32822;48.140;7.702;2024-01-10T04:23:07;33.30;;;21.60;;
47069;SDS011;32822;48.140;7.702;2024-01-10T04:25:35;36.67;;;22.20;;
47069;SDS011;32822;48.140;7.702;2024-01-10T04:28:01;35.97;;;20.77;;
47069;SDS011;32822;48.140;7.702;2024-01-10T04:30:28;33.00;;;20.80;;
47069;SDS011;32822;48.140;7.702;2024-01-10T04:32:55;34.97;;;19.60;;
47069;SDS011;32822;48.140;7.702;2024-01-10T04:35:21;33.03;;;21.40;;
47069;SDS011;32822;48.140;7.702;2024-01-10T04:37:48;35.20;;;20.30;;
47069;SDS011;32822;48.140;7.702;2024-01-10T04:40:15;34.00;;;20.93;;
47069;SDS011;32822;48.140;7.702;2024-01-10T04:42:43;33.97;;;20.57;;
47069;SDS011;32822;48.140;7.702;2024-01-10T04:45:11;34.73;;;19.57;;
47069;SDS011;32822;48.140;7.702;2024-01-10T04:47:38;34.80;;;20.80;;
47069;SDS011;32822;48.140;7.702;2024-01-10T04:50:05;36.30;;;21.60;;
47069;SDS011;32822;48.140;7.702;2024-01-10T04:52:32;33.70;;;20.63;;
47069;SDS011;32822;48.140;7.702;2024-01-10T04:54:59;37.60;;;21.20;;
47069;SDS011;32822;48.140;7.702;2024-01-10T04:57:27;33.17;;;20.43;;
47069;SDS011;32822;48.140;7.702;2024-01-10T04:59:55;33.77;;;21.13;;
47069;SDS011;32822;48.140;7.702;2024-01-10T05:02:22;32.90;;;20.73;;
47069;SDS011;32822;48.140;7.702;2024-01-10T05:04:48;35.30;;;22.20;;
47069;SDS011;32822;48.140;7.702;2024-01-10T05:07:15;35.47;;;20.63;;
47069;SDS011;32822;48.140;7.702;2024-01-10T05:09:42;37.57;;;21.63;;
47069;SDS011;32822;48.140;7.702;2024-01-10T05:12:08;36.23;;;22.13;;
47069;SDS011;32822;48.140;7.702;2024-01-10T05:14:35;34.57;;;21.80;;
47069;SDS011;32822;48.140;7.702;2024-01-10T05:17:03;39.37;;;23.10;;
47069;SDS011;32822;48.140;7.702;2024-01-10T05:19:30;37.37;;;22.83;;
47069;SDS011;32822;48.140;7.702;2024-01-10T05:21:57;43.47;;;25.50;;
47069;SDS011;32822;48.140;7.702;2024-01-10T05:24:24;39.70;;;24.30;;
47069;SDS011;32822;48.140;7.702;2024-01-10T05:26:51;41.90;;;23.97;;
47069;SDS011;32822;48.140;7.702;2024-01-10T05:29:18;45.07;;;28.83;;
47069;SDS011;32822;48.140;7.702;2024-01-10T05:31:44;39.33;;;24.80;;
47069;SDS011;32822;48.140;7.702;2024-01-10T05:34:12;37.93;;;21.80;;
47069;SDS011;32822;48.140;7.702;2024-01-10T05:36:39;38.27;;;22.20;;
47069;SDS011;32822;48.140;7.702;2024-01-10T05:39:06;39.53;;;23.60;;
47069;SDS011;32822;48.140;7.702;2024-01-10T05:41:32;37.73;;;23.57;;
47069;SDS011;32822;48.140;7.702;2024-01-10T05:43:59;36.90;;;22.83;;
47069;SDS011;32822;48.140;7.702;2024-01-10T05:46:26;36.70;;;22.60;;
47069;SDS011;32822;48.140;7.702;2024-01-10T05:48:53;36.00;;;22.60;;
47069;SDS011;32822;48.140;7.702;2024-01-10T05:51:21;38.97;;;23.70;;
47069;SDS011;32822;48.140;7.702;2024-01-10T05:53:48;38.97;;;22.63;;
47069;SDS011;32822;48.140;7.702;2024-01-10T05:56:14;40.67;;;23.57;;
47069;SDS011;32822;48.140;7.702;2024-01-10T05:58:41;44.47;;;25.50;;
47069;SDS011;32822;48.140;7.702;2024-01-10T06:01:07;42.13;;;25.23;;
47069;SDS011;32822;48.140;7.702;2024-01-10T06:03:35;36.07;;;22.80;;
47069;SDS011;32822;48.140;7.702;2024-01-10T06:06:02;34.47;;;21.37;;
47069;SDS011;32822;48.140;7.702;2024-01-10T06:08:31;36.80;;;21.27;;
47069;SDS011;32822;48.140;7.702;2024-01-10T06:10:58;31.80;;;19.80;;
47069;SDS011;32822;48.140;7.702;2024-01-10T06:13:25;32.87;;;20.20;;
47069;SDS011;32822;48.140;7.702;2024-01-10T06:15:51;29.07;;;19.10;;
47069;SDS011;32822;48.140;7.702;2024-01-10T06:18:18;35.93;;;21.97;;
47069;SDS011;32822;48.140;7.702;2024-01-10T06:20:45;33.47;;;19.97;;
47069;SDS011;32822;48.140;7.702;2024-01-10T06:23:11;30.57;;;19.97;;
47069;SDS011;32822;48.140;7.702;2024-01-10T06:25:40;34.30;;;21.40;;
47069;SDS011;32822;48.140;7.702;2024-01-10T06:28:06;34.93;;;20.80;;
47069;SDS011;32822;48.140;7.702;2024-01-10T06:30:33;33.90;;;19.90;;
47069;SDS011;32822;48.140;7.702;2024-01-10T06:33:00;30.70;;;19.73;;
47069;SDS011;32822;48.140;7.702;2024-01-10T06:35:27;34.83;;;20.20;;
47069;SDS011;32822;48.140;7.702;2024-01-10T06:37:54;29.20;;;19.37;;
47069;SDS011;32822;48.140;7.702;2024-01-10T06:40:21;30.03;;;20.17;;
47069;SDS011;32822;48.140;7.702;2024-01-10T06:42:49;36.70;;;20.50;;
47069;SDS011;32822;48.140;7.702;2024-01-10T06:45:15;29.97;;;19.30;;
47069;SDS011;32822;48.140;7.702;2024-01-10T06:47:42;35.57;;;21.00;;
47069;SDS011;32822;48.140;7.702;2024-01-10T06:50:09;52.73;;;27.00;;
47069;SDS011;32822;48.140;7.702;2024-01-10T06:52:36;51.53;;;27.77;;
47069;SDS011;32822;48.140;7.702;2024-01-10T06:55:03;38.73;;;24.03;;
47069;SDS011;32822;48.140;7.702;2024-01-10T06:57:31;33.07;;;20.33;;
47069;SDS011;32822;48.140;7.702;2024-01-10T06:59:59;34.30;;;21.60;;
47069;SDS011;32822;48.140;7.702;2024-01-10T07:02:28;32.07;;;20.07;;
47069;SDS011;32822;48.140;7.702;2024-01-10T07:04:55;32.50;;;20.10;;
47069;SDS011;32822;48.140;7.702;2024-01-10T07:07:21;29.60;;;16.87;;
47069;SDS011;32822;48.140;7.702;2024-01-10T07:09:48;34.73;;;22.17;;
47069;SDS011;32822;48.140;7.702;2024-01-10T07:12:14;36.10;;;26.47;;
47069;SDS011;32822;48.140;7.702;2024-01-10T07:14:41;30.67;;;21.57;;
47069;SDS011;32822;48.140;7.702;2024-01-10T07:17:09;34.43;;;20.43;;
47069;SDS011;32822;48.140;7.702;2024-01-10T07:19:36;31.93;;;18.97;;
47069;SDS011;32822;48.140;7.702;2024-01-10T07:22:03;40.03;;;21.17;;
47069;SDS011;32822;48.140;7.702;2024-01-10T07:24:30;31.07;;;19.43;;
47069;SDS011;32822;48.140;7.702;2024-01-10T07:26:56;33.27;;;18.97;;
47069;SDS011;32822;48.140;7.702;2024-01-10T07:29:24;36.00;;;23.17;;
47069;SDS011;32822;48.140;7.702;2024-01-10T07:31:50;36.13;;;19.57;;
47069;SDS011;32822;48.140;7.702;2024-01-10T07:34:19;29.53;;;18.93;;
47069;SDS011;32822;48.140;7.702;2024-01-10T07:36:46;26.30;;;17.27;;
47069;SDS011;32822;48.140;7.702;2024-01-10T07:39:13;32.67;;;18.63;;
47069;SDS011;32822;48.140;7.702;2024-01-10T07:41:40;31.93;;;19.30;;
47069;SDS011;32822;48.140;7.702;2024-01-10T07:44:07;29.03;;;20.17;;
47069;SDS011;32822;48.140;7.702;2024-01-10T07:46:35;30.00;;;19.37;;
47069;SDS011;32822;48.140;7.702;2024-01-10T07:49:02;26.57;;;17.20;;
47069;SDS011;32822;48.140;7.702;2024-01-10T07:51:31;29.07;;;18.07;;
47069;SDS011;32822;48.140;7.702;2024-01-10T07:53:58;32.60;;;20.03;;
47069;SDS011;32822;48.140;7.702;2024-01-10T07:56:25;31.90;;;19.57;;
47069;SDS011;32822;48.140;7.702;2024-01-10T07:58:52;29.50;;;17.87;;
47069;SDS011;32822;48.140;7.702;2024-01-10T08:01:18;31.67;;;19.63;;
47069;SDS011;32822;48.140;7.702;2024-01-10T08:03:46;28.80;;;17.77;;
47069;SDS011;32822;48.140;7.702;2024-01-10T08:06:13;24.80;;;17.33;;
47069;SDS011;32822;48.140;7.702;2024-01-10T08:08:41;31.53;;;19.07;;
47069;SDS011;32822;48.140;7.702;2024-01-10T08:11:07;30.17;;;17.77;;
47069;SDS011;32822;48.140;7.702;2024-01-10T08:13:34;30.87;;;18.60;;
47069;SDS011;32822;48.140;7.702;2024-01-10T08:16:01;30.93;;;20.20;;
47069;SDS011;32822;48.140;7.702;2024-01-10T08:18:28;34.17;;;20.43;;
47069;SDS011;32822;48.140;7.702;2024-01-10T08:20:55;36.70;;;21.30;;
47069;SDS011;32822;48.140;7.702;2024-01-10T08:23:22;42.93;;;24.80;;
47069;SDS011;32822;48.140;7.702;2024-01-10T08:25:50;48.13;;;28.37;;
47069;SDS011;32822;48.140;7.702;2024-01-10T08:28:17;48.80;;;31.07;;
47069;SDS011;32822;48.140;7.702;2024-01-10T08:30:43;52.93;;;32.43;;
47069;SDS011;32822;48.140;7.702;2024-01-10T08:33:09;45.33;;;28.77;;
47069;SDS011;32822;48.140;7.702;2024-01-10T08:35:36;40.97;;;25.63;;
47069;SDS011;32822;48.140;7.702;2024-01-10T08:38:04;39.17;;;22.37;;
47069;SDS011;32822;48.140;7.702;2024-01-10T08:40:32;34.87;;;21.63;;
47069;SDS011;32822;48.140;7.702;2024-01-10T08:43:00;27.57;;;18.43;;
47069;SDS011;32822;48.140;7.702;2024-01-10T08:45:27;26.73;;;17.97;;
47069;SDS011;32822;48.140;7.702;2024-01-10T08:47:54;29.87;;;17.67;;
47069;SDS011;32822;48.140;7.702;2024-01-10T08:50:22;27.80;;;16.97;;
47069;SDS011;32822;48.140;7.702;2024-01-10T08:52:49;24.83;;;17.20;;
47069;SDS011;32822;48.140;7.702;2024-01-10T08:55:16;29.83;;;18.67;;
47069;SDS011;32822;48.140;7.702;2024-01-10T08:57:42;26.67;;;18.03;;
47069;SDS011;32822;48.140;7.702;2024-01-10T09:00:11;27.03;;;17.73;;
47069;SDS011;32822;48.140;7.702;2024-01-10T09:02:41;32.03;;;18.03;;
47069;SDS011;32822;48.140;7.702;2024-01-10T09:05:08;26.83;;;18.20;;
47069;SDS011;32822;48.140;7.702;2024-01-10T09:07:35;26.83;;;16.33;;
47069;SDS011;32822;48.140;7.702;2024-01-10T09:10:02;26.00;;;15.63;;
47069;SDS011;32822;48.140;7.702;2024-01-10T09:12:30;30.67;;;17.67;;
47069;SDS011;32822;48.140;7.702;2024-01-10T09:14:57;28.07;;;15.60;;
47069;SDS011;32822;48.140;7.702;2024-01-10T09:17:25;29.93;;;18.23;;
47069;SDS011;32822;48.140;7.702;2024-01-10T09:19:52;26.77;;;17.40;;
47069;SDS011;32822;48.140;7.702;2024-01-10T09:22:19;30.60;;;18.77;;
47069;SDS011;32822;48.140;7.702;2024-01-10T09:24:47;24.10;;;15.70;;
47069;SDS011;32822;48.140;7.702;2024-01-10T09:27:14;26.27;;;16.13;;
47069;SDS011;32822;48.140;7.702;2024-01-10T09:29:40;25.53;;;16.07;;
47069;SDS011;32822;48.140;7.702;2024-01-10T09:32:07;26.93;;;16.63;;
47069;SDS011;32822;48.140;7.702;2024-01-10T09:34:35;25.93;;;16.73;;
47069;SDS011;32822;48.140;7.702;2024-01-10T09:37:02;30.43;;;18.17;;
47069;SDS011;32822;48.140;7.702;2024-01-10T09:39:30;30.87;;;18.20;;
47069;SDS011;32822;48.140;7.702;2024-01-10T09:41:56;24.20;;;15.90;;
47069;SDS011;32822;48.140;7.702;2024-01-10T09:44:23;23.23;;;15.67;;
47069;SDS011;32822;48.140;7.702;2024-01-10T09:46:51;21.93;;;14.03;;
47069;SDS011;32822;48.140;7.702;2024-01-10T09:49:18;28.23;;;16.60;;
47069;SDS011;32822;48.140;7.702;2024-01-10T09:51:48;23.47;;;15.70;;
47069;SDS011;32822;48.140;7.702;2024-01-10T09:54:15;26.10;;;16.60;;
47069;SDS011;32822;48.140;7.702;2024-01-10T09:56:44;27.33;;;16.50;;
47069;SDS011;32822;48.140;7.702;2024-01-10T09:59:11;26.17;;;16.80;;
47069;SDS011;32822;48.140;7.702;2024-01-10T10:01:38;23.83;;;16.60;;
47069;SDS011;32822;48.140;7.702;2024-01-10T10:04:05;25.83;;;16.67;;
47069;SDS011;32822;48.140;7.702;2024-01-10T10:06:35;26.70;;;18.03;;
47069;SDS011;32822;48.140;7.702;2024-01-10T10:09:03;27.13;;;16.97;;
47069;SDS011;32822;48.140;7.702;2024-01-10T10:11:30;25.67;;;15.03;;
47069;SDS011;32822;48.140;7.702;2024-01-10T10:13:57;24.27;;;15.77;;
47069;SDS011;32822;48.140;7.702;2024-01-10T10:16:42;26.47;;;15.40;;
47069;SDS011;32822;48.140;7.702;2024-01-10T10:19:09;24.50;;;15.63;;
47069;SDS011;32822;48.140;7.702;2024-01-10T10:21:37;22.73;;;14.83;;
47069;SDS011;32822;48.140;7.702;2024-01-10T10:24:05;20.13;;;13.10;;
47069;SDS011;32822;48.140;7.702;2024-01-10T10:26:35;21.43;;;14.97;;
47069;SDS011;32822;48.140;7.702;2024-01-10T10:29:01;23.97;;;14.77;;
47069;SDS011;32822;48.140;7.702;2024-01-10T10:31:29;22.13;;;13.50;;
47069;SDS011;32822;48.140;7.702;2024-01-10T10:33:56;20.37;;;13.77;;
47069;SDS011;32822;48.140;7.702;2024-01-10T10:36:25;21.93;;;14.13;;
47069;SDS011;32822;48.140;7.702;2024-01-10T10:38:52;25.90;;;16.20;;
47069;SDS011;32822;48.140;7.702;2024-01-10T10:41:20;23.17;;;14.77;;
47069;SDS011;32822;48.140;7.702;2024-01-10T10:43:47;24.47;;;14.73;;
47069;SDS011;32822;48.140;7.702;2024-01-10T10:46:16;23.57;;;13.70;;
47069;SDS011;32822;48.140;7.702;2024-01-10T10:48:43;26.93;;;16.13;;
47069;SDS011;32822;48.140;7.702;2024-01-10T10:51:10;25.60;;;15.27;;
47069;SDS011;32822;48.140;7.702;2024-01-10T10:53:38;26.93;;;16.63;;
47069;SDS011;32822;48.140;7.702;2024-01-10T10:56:06;26.77;;;17.53;;
47069;SDS011;32822;48.140;7.702;2024-01-10T10:58:35;28.67;;;17.53;;
47069;SDS011;32822;48.140;7.702;2024-01-10T11:01:04;26.03;;;17.33;;
47069;SDS011;32822;48.140;7.702;2024-01-10T11:03:33;25.13;;;17.03;;
47069;SDS011;32822;48.140;7.702;2024-01-10T11:06:02;26.53;;;16.57;;
47069;SDS011;32822;48.140;7.702;2024-01-10T11:08:30;27.53;;;18.03;;
47069;SDS011;32822;48.140;7.702;2024-01-10T11:11:01;25.17;;;17.07;;
47069;SDS011;32822;48.140;7.702;2024-01-10T11:13:35;27.77;;;16.27;;
47069;SDS011;32822;48.140;7.702;2024-01-10T11:22:13;26.53;;;16.63;;
47069;SDS011;32822;48.140;7.702;2024-01-10T11:24:47;25.07;;;15.90;;
47069;SDS011;32822;48.140;7.702;2024-01-10T11:27:14;24.00;;;15.90;;
47069;SDS011;32822;48.140;7.702;2024-01-10T11:29:43;27.83;;;16.47;;
47069;SDS011;32822;48.140;7.702;2024-01-10T11:32:15;26.00;;;16.33;;
47069;SDS011;32822;48.140;7.702;2024-01-10T11:34:49;24.40;;;15.60;;
47069;SDS011;32822;48.140;7.702;2024-01-10T11:37:20;24.57;;;16.00;;
47069;SDS011;32822;48.140;7.702;2024-01-10T11:39:46;26.13;;;17.27;;
47069;SDS011;32822;48.140;7.702;2024-01-10T11:42:20;24.07;;;15.57;;
47069;SDS011;32822;48.140;7.702;2024-01-10T11:44:49;28.67;;;17.07;;
47069;SDS011;32822;48.140;7.702;2024-01-10T11:47:18;22.43;;;15.50;;
47069;SDS011;32822;48.140;7.702;2024-01-10T11:49:55;23.43;;;16.27;;
47069;SDS011;32822;48.140;7.702;2024-01-10T11:52:23;28.27;;;18.17;;
47069;SDS011;32822;48.140;7.702;2024-01-10T11:54:57;27.23;;;16.47;;
47069;SDS011;32822;48.140;7.702;2024-01-10T11:57:25;24.03;;;17.77;;
47069;SDS011;32822;48.140;7.702;2024-01-10T11:59:55;26.47;;;17.97;;
47069;SDS011;32822;48.140;7.702;2024-01-10T12:02:25;29.57;;;18.40;;
47069;SDS011;32822;48.140;7.702;2024-01-10T12:04:53;25.33;;;17.13;;
47069;SDS011;32822;48.140;7.702;2024-01-10T12:07:20;30.17;;;18.40;;
47069;SDS011;32822;48.140;7.702;2024-01-10T12:09:48;28.43;;;18.97;;
47069;SDS011;32822;48.140;7.702;2024-01-10T12:12:15;25.23;;;17.47;;
47069;SDS011;32822;48.140;7.702;2024-01-10T12:14:42;32.23;;;18.33;;
47069;SDS011;32822;48.140;7.702;2024-01-10T12:17:10;28.97;;;17.63;;
47069;SDS011;32822;48.140;7.702;2024-01-10T12:19:37;37.77;;;26.83;;
47069;SDS011;32822;48.140;7.702;2024-01-10T12:22:04;25.67;;;17.33;;
47069;SDS011;32822;48.140;7.702;2024-01-10T12:24:31;26.23;;;17.30;;
47069;SDS011;32822;48.140;7.702;2024-01-10T12:26:58;28.00;;;16.47;;
47069;SDS011;32822;48.140;7.702;2024-01-10T12:29:25;31.40;;;17.63;;
47069;SDS011;32822;48.140;7.702;2024-01-10T12:31:52;26.90;;;17.23;;
47069;SDS011;32822;48.140;7.702;2024-01-10T12:34:21;24.90;;;17.60;;
47069;SDS011;32822;48.140;7.702;2024-01-10T12:36:48;24.23;;;16.50;;
47069;SDS011;32822;48.140;7.702;2024-01-10T12:39:14;27.07;;;18.27;;
47069;SDS011;32822;48.140;7.702;2024-01-10T12:41:42;26.57;;;17.77;;
47069;SDS011;32822;48.140;7.702;2024-01-10T12:44:09;32.57;;;18.60;;
47069;SDS011;32822;48.140;7.702;2024-01-10T12:46:48;28.07;;;18.13;;
47069;SDS011;32822;48.140;7.702;2024-01-10T12:49:16;27.40;;;18.07;;
47069;SDS011;32822;48.140;7.702;2024-01-10T12:51:44;27.03;;;16.87;;
47069;SDS011;32822;48.140;7.702;2024-01-10T12:54:13;26.90;;;17.97;;
47069;SDS011;32822;48.140;7.702;2024-01-10T12:56:40;27.03;;;18.97;;
47069;SDS011;32822;48.140;7.702;2024-01-10T12:59:07;31.67;;;18.27;;
47069;SDS011;32822;48.140;7.702;2024-01-10T13:01:35;26.53;;;17.20;;
47069;SDS011;32822;48.140;7.702;2024-01-10T13:04:02;28.43;;;18.00;;
47069;SDS011;32822;48.140;7.702;2024-01-10T13:06:29;25.37;;;17.13;;
47069;SDS011;32822;48.140;7.702;2024-01-10T13:08:57;28.70;;;18.00;;
47069;SDS011;32822;48.140;7.702;2024-01-10T13:11:24;26.70;;;17.97;;
47069;SDS011;32822;48.140;7.702;2024-01-10T13:13:50;25.97;;;17.50;;
47069;SDS011;32822;48.140;7.702;2024-01-10T13:16:17;27.53;;;17.87;;
47069;SDS011;32822;48.140;7.702;2024-01-10T13:18:44;28.40;;;18.47;;
47069;SDS011;32822;48.140;7.702;2024-01-10T13:21:10;26.00;;;17.57;;
47069;SDS011;32822;48.140;7.702;2024-01-10T13:23:37;25.07;;;17.70;;
47069;SDS011;32822;48.140;7.702;2024-01-10T13:26:05;24.20;;;16.07;;
47069;SDS011;32822;48.140;7.702;2024-01-10T13:28:32;26.10;;;16.27;;
47069;SDS011;32822;48.140;7.702;2024-01-10T13:30:59;25.63;;;17.67;;
47069;SDS011;32822;48.140;7.702;2024-01-10T13:33:28;27.90;;;17.50;;
47069;SDS011;32822;48.140;7.702;2024-01-10T13:35:55;27.20;;;17.27;;
47069;SDS011;32822;48.140;7.702;2024-01-10T13:38:21;25.67;;;17.80;;
47069;SDS011;32822;48.140;7.702;2024-01-10T13:40:49;31.93;;;18.83;;
47069;SDS011;32822;48.140;7.702;2024-01-10T13:43:17;25.00;;;16.83;;
47069;SDS011;32822;48.140;7.702;2024-01-10T13:45:44;26.93;;;17.67;;
47069;SDS011;32822;48.140;7.702;2024-01-10T13:48:10;30.97;;;17.67;;
47069;SDS011;32822;48.140;7.702;2024-01-10T13:50:37;27.87;;;17.97;;
47069;SDS011;32822;48.140;7.702;2024-01-10T13:53:04;25.77;;;16.43;;
47069;SDS011;32822;48.140;7.702;2024-01-10T13:55:30;26.20;;;17.33;;
47069;SDS011;32822;48.140;7.702;2024-01-10T13:57:58;26.50;;;16.97;;
47069;SDS011;32822;48.140;7.702;2024-01-10T14:00:26;23.77;;;16.87;;
47069;SDS011;32822;48.140;7.702;2024-01-10T14:02:53;27.87;;;18.40;;
47069;SDS011;32822;48.140;7.702;2024-01-10T14:05:25;28.13;;;18.77;;
47069;SDS011;32822;48.140;7.702;2024-01-10T14:07:52;25.60;;;16.60;;
47069;SDS011;32822;48.140;7.702;2024-01-10T14:10:19;28.90;;;18.53;;
47069;SDS011;32822;48.140;7.702;2024-01-10T14:12:45;26.40;;;17.50;;
47069;SDS011;32822;48.140;7.702;2024-01-10T14:15:13;27.73;;;17.30;;
47069;SDS011;32822;48.140;7.702;2024-01-10T14:17:41;26.90;;;18.17;;
47069;SDS011;32822;48.140;7.702;2024-01-10T14:20:08;28.67;;;18.37;;
47069;SDS011;32822;48.140;7.702;2024-01-10T14:22:35;27.13;;;17.83;;
47069;SDS011;32822;48.140;7.702;2024-01-10T14:25:02;26.90;;;17.90;;
47069;SDS011;32822;48.140;7.702;2024-01-10T14:27:30;27.80;;;17.00;;
47069;SDS011;32822;48.140;7.702;2024-01-10T14:29:57;25.20;;;18.97;;